Time;durP1;ratioP1;P1;durP2;ratioP2;P2;SDS_P1;SDS_P2;PMS_P1;PMS_P2;Temp;Humidity;BMP_temperature;BMP_pressure;BME280_temperature;BME280_humidity;BME280_pressure;Samples;Min_cycle;Max_cycle;Signal;HPM_P1;HPM_P2
2023/04/14 00:01:15;;;;;;;3.08;2.30;;;6.90;97.60;;;;;;5101894;28;20805;-64
2023/04/14 00:03:42;;;;;;;3.60;2.90;;;6.80;97.80;;;;;;5095921;28;20562;-64
2023/04/14 00:06:09;;;;;;;3.85;2.50;;;6.80;98.10;;;;;;5098181;28;20490;-64
2023/04/14 00:08:36;;;;;;;4.13;2.30;;;6.80;97.90;;;;;;5098076;28;20432;-64
2023/04/14 00:11:02;;;;;;;3.08;2.50;;;6.80;97.90;;;;;;5109337;28;20434;-64
2023/04/14 00:13:30;;;;;;;4.53;2.60;;;6.80;98.30;;;;;;5101855;28;20424;-65
2023/04/14 00:15:57;;;;;;;3.55;2.60;;;6.70;98.20;;;;;;5106042;28;20450;-65
2023/04/14 00:18:24;;;;;;;4.13;2.80;;;6.70;98.40;;;;;;5102655;28;20444;-64
2023/04/14 00:20:53;;;;;;;4.00;3.20;;;6.70;98.40;;;;;;5097721;28;20571;-64
2023/04/14 00:23:19;;;;;;;4.57;3.10;;;6.70;98.90;;;;;;5096485;28;20414;-64
2023/04/14 00:25:46;;;;;;;4.82;3.00;;;6.70;99.20;;;;;;5089610;28;20903;-64
2023/04/14 00:28:13;;;;;;;3.97;3.30;;;6.70;99.30;;;;;;5096461;28;20506;-64
2023/04/14 00:30:41;;;;;;;3.28;2.75;;;6.70;99.50;;;;;;5100089;28;20440;-65
2023/04/14 00:33:08;;;;;;;3.75;2.80;;;6.80;99.50;;;;;;5098997;28;20460;-65
2023/04/14 00:35:34;;;;;;;3.65;3.00;;;6.70;99.30;;;;;;5106677;28;20440;-64
2023/04/14 00:38:01;;;;;;;4.65;2.80;;;6.70;99.90;;;;;;5113493;28;20422;-64
2023/04/14 00:40:30;;;;;;;5.65;3.22;;;6.70;99.50;;;;;;5108860;28;20440;-64
2023/04/14 00:42:56;;;;;;;4.22;3.38;;;6.70;99.70;;;;;;5124647;28;20432;-64
2023/04/14 00:45:24;;;;;;;4.45;2.65;;;6.60;99.50;;;;;;5119921;28;20438;-64
2023/04/14 00:47:52;;;;;;;4.82;3.10;;;6.50;99.90;;;;;;5111701;28;20774;-64
2023/04/14 00:50:21;;;;;;;4.67;2.90;;;6.50;99.90;;;;;;5098655;28;20529;-65
2023/04/14 00:52:50;;;;;;;5.90;3.70;;;6.50;99.90;;;;;;5109989;28;20428;-65
2023/04/14 00:55:19;;;;;;;7.22;4.90;;;6.50;99.90;;;;;;5099129;28;20430;-64
2023/04/14 00:57:46;;;;;;;6.00;4.20;;;6.50;99.90;;;;;;5090756;28;20490;-64
2023/04/14 01:00:14;;;;;;;5.60;4.60;;;6.50;99.90;;;;;;5103878;28;20444;-68
2023/04/14 01:02:41;;;;;;;4.80;4.10;;;6.50;99.90;;;;;;5108371;28;20789;-64
2023/04/14 01:05:09;;;;;;;5.40;4.20;;;6.50;99.90;;;;;;5106959;28;20526;-64
2023/04/14 01:07:37;;;;;;;4.80;4.20;;;6.60;99.90;;;;;;5107808;28;20745;-65
2023/04/14 01:10:05;;;;;;;6.10;3.80;;;6.50;99.90;;;;;;5119696;28;20739;-67
2023/04/14 01:12:50;;;;;;;5.10;3.60;;;6.60;99.90;;;;;;5120508;28;20539;-63
2023/04/14 01:15:25;;;;;;;4.32;3.92;;;6.50;99.90;;;;;;5119962;28;20438;-65
2023/04/14 01:17:56;;;;;;;4.40;4.00;;;6.50;99.90;;;;;;5106693;28;20424;-65
2023/04/14 01:20:28;;;;;;;6.10;4.60;;;6.50;99.90;;;;;;5109019;28;20521;-64
2023/04/14 01:23:01;;;;;;;5.60;3.80;;;6.50;99.90;;;;;;5101295;28;20833;-64
2023/04/14 01:26:02;;;;;;;6.32;3.78;;;6.40;99.90;;;;;;5118294;28;20424;-65
2023/04/14 01:28:42;;;;;;;4.28;3.67;;;6.30;99.90;;;;;;5117092;28;20420;-65
2023/04/14 01:31:23;;;;;;;5.57;3.90;;;6.30;99.90;;;;;;5113390;28;20430;-64
2023/04/14 01:33:58;;;;;;;3.97;3.58;;;6.20;99.90;;;;;;5107036;28;20422;-64
2023/04/14 01:36:32;;;;;;;5.00;4.50;;;6.20;99.90;;;;;;5111435;28;20428;-65
2023/04/14 01:39:03;;;;;;;5.40;3.80;;;6.10;99.90;;;;;;5101593;28;20429;-66
2023/04/14 01:41:32;;;;;;;4.18;3.78;;;6.00;99.90;;;;;;5112425;28;20432;-63
2023/04/14 01:44:01;;;;;;;4.35;3.67;;;6.00;99.90;;;;;;5107911;28;20437;-65
2023/04/14 01:46:30;;;;;;;4.90;4.32;;;6.00;99.90;;;;;;5103863;28;20884;-64
2023/04/14 01:48:57;;;;;;;4.13;3.73;;;6.00;99.90;;;;;;5107701;28;20424;-64
2023/04/14 01:51:26;;;;;;;5.40;3.80;;;6.00;99.90;;;;;;5097203;28;20432;-63
2023/04/14 01:53:55;;;;;;;4.93;4.43;;;6.00;99.90;;;;;;5093451;28;20479;-64
2023/04/14 01:56:23;;;;;;;5.45;4.00;;;5.90;99.90;;;;;;5103363;28;20424;-64
2023/04/14 01:58:53;;;;;;;7.10;5.00;;;5.90;99.90;;;;;;5111602;28;20428;-64
2023/04/14 02:01:21;;;;;;;5.00;4.60;;;5.90;99.90;;;;;;5102873;28;20433;-64
2023/04/14 02:03:50;;;;;;;5.05;4.35;;;5.90;99.90;;;;;;5101087;28;20822;-64
2023/04/14 02:06:20;;;;;;;5.65;4.60;;;5.90;99.90;;;;;;5097683;28;20524;-64
2023/04/14 02:08:47;;;;;;;5.70;5.20;;;5.80;99.90;;;;;;5100226;28;20440;-64
2023/04/14 02:11:16;;;;;;;5.15;4.65;;;5.80;99.90;;;;;;5098414;28;20493;-64
2023/04/14 02:13:43;;;;;;;5.60;5.03;;;5.80;99.90;;;;;;5101369;28;20443;-63
2023/04/14 02:16:11;;;;;;;5.73;5.23;;;5.80;99.90;;;;;;5112936;27;20501;-64
2023/04/14 02:18:40;;;;;;;6.47;5.32;;;5.80;99.90;;;;;;5107177;27;20426;-64
2023/04/14 02:21:09;;;;;;;6.72;6.03;;;5.80;99.90;;;;;;5106397;28;20523;-64
2023/04/14 02:23:36;;;;;;;6.57;5.97;;;5.80;99.90;;;;;;5096340;28;20436;-64
2023/04/14 02:26:07;;;;;;;6.70;5.90;;;5.80;99.90;;;;;;5100978;28;20428;-64
2023/04/14 02:28:41;;;;;;;7.18;5.90;;;5.80;99.90;;;;;;5107428;28;20519;-64
2023/04/14 02:31:09;;;;;;;7.40;5.85;;;5.80;99.90;;;;;;5100383;28;20457;-64
2023/04/14 02:33:39;;;;;;;6.68;5.70;;;5.70;99.90;;;;;;5102666;28;20771;-64
2023/04/14 02:36:14;;;;;;;7.20;5.80;;;5.60;99.90;;;;;;5105304;28;20432;-64
2023/04/14 02:38:47;;;;;;;5.90;5.30;;;5.50;99.90;;;;;;5087800;28;20425;-64
2023/04/14 02:41:20;;;;;;;6.20;5.60;;;5.50;99.90;;;;;;5099538;28;20445;-64
2023/04/14 02:43:50;;;;;;;6.75;5.32;;;5.50;99.90;;;;;;5094289;28;20520;-64
2023/04/14 02:46:19;;;;;;;5.93;5.20;;;5.50;99.90;;;;;;5095065;28;20430;-64
2023/04/14 02:48:47;;;;;;;5.00;4.60;;;5.50;99.90;;;;;;5101844;28;20818;-64
2023/04/14 02:51:17;;;;;;;5.20;4.70;;;5.50;99.90;;;;;;5094795;28;20433;-64
2023/04/14 02:53:45;;;;;;;5.70;4.97;;;5.40;99.90;;;;;;5100656;28;20424;-64
2023/04/14 02:56:12;;;;;;;6.00;5.37;;;5.40;99.90;;;;;;5107335;28;20910;-64
2023/04/14 02:58:40;;;;;;;7.05;5.30;;;5.30;99.90;;;;;;5107214;28;20499;-66
2023/04/14 03:01:07;;;;;;;6.63;5.55;;;5.30;99.90;;;;;;5099114;28;20433;-64
2023/04/14 03:03:36;;;;;;;6.33;5.73;;;5.30;99.90;;;;;;5104180;28;21054;-64
2023/04/14 03:06:04;;;;;;;6.20;5.57;;;5.40;99.90;;;;;;5098404;28;20428;-64
2023/04/14 03:08:33;;;;;;;6.80;6.10;;;5.30;99.90;;;;;;5100976;28;20487;-64
2023/04/14 03:11:02;;;;;;;6.63;5.75;;;5.30;99.90;;;;;;5102668;28;20435;-64
2023/04/14 03:13:30;;;;;;;5.50;5.00;;;5.30;99.90;;;;;;5092009;28;20420;-64
2023/04/14 03:15:59;;;;;;;6.87;5.60;;;5.20;99.90;;;;;;5091760;28;20836;-62
2023/04/14 03:18:26;;;;;;;7.17;5.50;;;5.20;99.90;;;;;;5098803;28;20906;-63
2023/04/14 03:20:54;;;;;;;5.45;4.82;;;5.20;99.90;;;;;;5101106;28;20994;-63
2023/04/14 03:23:25;;;;;;;5.10;4.60;;;5.20;99.90;;;;;;5101967;28;20954;-63
2023/04/14 03:25:54;;;;;;;5.40;4.90;;;5.10;99.90;;;;;;5093837;28;20649;-63
2023/04/14 03:28:23;;;;;;;6.25;5.05;;;5.20;99.90;;;;;;5098401;28;20527;-63
2023/04/14 03:30:52;;;;;;;7.75;6.15;;;5.20;99.90;;;;;;5101481;28;20451;-63
2023/04/14 03:33:23;;;;;;;6.05;5.45;;;5.20;99.90;;;;;;5087293;28;20418;-63
2023/04/14 03:35:52;;;;;;;6.38;5.30;;;5.30;99.90;;;;;;5097136;28;20761;-67
2023/04/14 03:38:20;;;;;;;10.55;6.20;;;5.20;99.90;;;;;;5085916;28;20462;-64
2023/04/14 03:40:48;;;;;;;6.53;5.90;;;5.20;99.90;;;;;;5103408;28;20483;-63
2023/04/14 03:43:19;;;;;;;7.60;5.82;;;5.20;99.90;;;;;;5100942;28;20796;-63
2023/04/14 03:45:47;;;;;;;7.30;6.60;;;5.20;99.90;;;;;;5100706;28;20736;-63
2023/04/14 03:48:16;;;;;;;7.70;6.90;;;5.20;99.90;;;;;;5101344;28;20434;-63
2023/04/14 03:50:46;;;;;;;7.90;7.10;;;5.20;99.90;;;;;;5101176;28;20420;-63
2023/04/14 03:53:16;;;;;;;7.38;6.65;;;5.20;99.90;;;;;;5090648;28;20497;-63
2023/04/14 03:55:46;;;;;;;7.45;6.70;;;5.20;99.90;;;;;;5104389;28;20527;-63
2023/04/14 03:58:16;;;;;;;7.68;6.97;;;5.20;99.90;;;;;;5097579;28;20416;-63
2023/04/14 04:00:44;;;;;;;8.20;7.40;;;5.20;99.90;;;;;;5105974;28;20580;-64
2023/04/14 04:03:12;;;;;;;10.00;8.30;;;5.20;99.90;;;;;;5092886;28;20414;-63
2023/04/14 04:05:40;;;;;;;11.07;9.00;;;5.20;99.90;;;;;;5091942;28;20437;-67
2023/04/14 04:08:09;;;;;;;10.60;8.75;;;5.20;99.90;;;;;;5100124;28;20437;-63
2023/04/14 04:10:37;;;;;;;10.63;8.90;;;5.20;99.90;;;;;;5089754;28;20406;-63
2023/04/14 04:13:08;;;;;;;9.35;8.43;;;5.10;99.90;;;;;;5101478;28;20456;-63
2023/04/14 04:15:37;;;;;;;9.30;8.40;;;5.10;99.90;;;;;;5104389;28;20427;-63
2023/04/14 04:18:07;;;;;;;8.35;7.47;;;5.00;99.90;;;;;;5102033;28;20424;-63
2023/04/14 04:20:36;;;;;;;11.52;8.60;;;5.10;99.90;;;;;;5093914;28;20462;-63
2023/04/14 04:23:05;;;;;;;13.52;9.45;;;5.00;99.90;;;;;;5101086;28;20426;-65
2023/04/14 04:25:34;;;;;;;13.32;9.80;;;5.00;99.90;;;;;;5102384;28;20439;-63
2023/04/14 04:28:01;;;;;;;13.52;10.02;;;4.90;99.90;;;;;;5106591;28;20482;-63
2023/04/14 04:30:30;;;;;;;11.60;8.18;;;4.90;99.90;;;;;;5102015;28;20447;-64
2023/04/14 04:32:59;;;;;;;8.90;7.27;;;4.90;99.90;;;;;;5098812;28;20413;-63
2023/04/14 04:35:26;;;;;;;10.30;7.40;;;4.80;99.90;;;;;;5103736;28;20425;-63
2023/04/14 04:37:55;;;;;;;7.80;7.10;;;4.80;99.90;;;;;;5099417;28;20522;-63
2023/04/14 04:40:21;;;;;;;7.40;6.30;;;4.80;99.90;;;;;;5089216;28;20615;-63
2023/04/14 04:42:48;;;;;;;8.10;7.15;;;4.80;99.90;;;;;;5093133;28;20438;-63
2023/04/14 04:45:35;;;;;;;7.03;6.35;;;4.80;99.90;;;;;;5103941;28;20439;-63
2023/04/14 04:48:04;;;;;;;7.97;6.75;;;4.90;99.90;;;;;;5096847;28;20424;-64
2023/04/14 04:50:30;;;;;;;8.10;6.68;;;4.90;99.90;;;;;;5105915;28;20476;-63
2023/04/14 04:52:57;;;;;;;7.30;6.60;;;4.80;99.90;;;;;;5108100;27;20939;-63
2023/04/14 04:55:24;;;;;;;7.18;6.47;;;4.80;99.90;;;;;;5112143;27;20460;-63
2023/04/14 04:57:51;;;;;;;7.20;6.22;;;4.80;99.90;;;;;;5105523;28;20416;-64
2023/04/14 05:00:18;;;;;;;7.53;5.20;;;4.80;99.90;;;;;;5093865;28;20799;-64
2023/04/14 05:02:45;;;;;;;6.53;5.93;;;4.80;99.90;;;;;;5104285;28;20443;-63
2023/04/14 05:05:14;;;;;;;6.28;5.60;;;4.80;99.90;;;;;;5105164;27;20437;-63
2023/04/14 05:07:41;;;;;;;5.78;5.28;;;4.80;99.90;;;;;;5111766;27;20444;-65
2023/04/14 05:10:08;;;;;;;6.55;5.50;;;4.90;99.90;;;;;;5102993;28;20501;-65
2023/04/14 05:12:35;;;;;;;6.90;5.90;;;4.80;99.90;;;;;;5092679;28;20794;-68
2023/04/14 05:15:02;;;;;;;8.20;6.40;;;4.90;99.90;;;;;;5101061;28;20420;-66
2023/04/14 05:17:29;;;;;;;7.30;6.03;;;4.90;99.90;;;;;;5091845;28;20531;-66
2023/04/14 05:19:56;;;;;;;6.57;5.88;;;4.90;99.90;;;;;;5101511;28;20531;-66
2023/04/14 05:22:24;;;;;;;7.18;6.20;;;4.90;99.90;;;;;;5096971;28;20428;-65
2023/04/14 05:24:51;;;;;;;6.90;6.20;;;4.90;99.90;;;;;;5099487;28;20889;-66
2023/04/14 05:27:18;;;;;;;7.05;5.40;;;4.90;99.90;;;;;;5100320;28;20459;-66
2023/04/14 05:29:45;;;;;;;7.93;6.30;;;4.90;99.90;;;;;;5106852;27;20427;-66
2023/04/14 05:32:13;;;;;;;7.43;6.40;;;5.00;99.90;;;;;;5102359;28;20527;-66
2023/04/14 05:34:40;;;;;;;7.03;6.38;;;5.00;99.90;;;;;;5100407;28;20508;-66
2023/04/14 05:37:06;;;;;;;7.45;6.60;;;5.10;99.90;;;;;;5103433;28;20582;-65
2023/04/14 05:39:35;;;;;;;6.55;5.07;;;5.00;99.90;;;;;;5100588;28;20435;-66
2023/04/14 05:42:01;;;;;;;5.90;5.30;;;5.00;99.90;;;;;;5095438;28;20482;-66
2023/04/14 05:44:28;;;;;;;6.40;5.80;;;5.00;99.90;;;;;;5101918;28;20428;-66
2023/04/14 05:46:55;;;;;;;7.13;6.00;;;5.00;99.90;;;;;;5095764;28;20446;-66
2023/04/14 05:49:21;;;;;;;5.90;5.00;;;5.00;99.90;;;;;;5097963;28;20432;-66
2023/04/14 05:51:48;;;;;;;6.40;4.90;;;5.10;99.90;;;;;;5103246;28;20766;-66
2023/04/14 05:54:15;;;;;;;6.15;5.60;;;5.20;99.90;;;;;;5094703;28;20762;-65
2023/04/14 05:56:43;;;;;;;6.38;5.53;;;5.20;99.90;;;;;;5102581;28;20424;-66
2023/04/14 05:59:10;;;;;;;7.55;5.80;;;5.20;99.90;;;;;;5094579;28;20428;-67
2023/04/14 06:01:36;;;;;;;5.80;5.20;;;5.20;99.90;;;;;;5097176;28;20480;-67
2023/04/14 06:04:04;;;;;;;6.65;5.32;;;5.20;99.90;;;;;;5100811;28;20435;-66
2023/04/14 06:06:32;;;;;;;6.20;5.60;;;5.20;99.90;;;;;;5101747;28;20475;-66
2023/04/14 06:08:58;;;;;;;7.07;5.43;;;5.20;99.90;;;;;;5106131;28;20412;-67
2023/04/14 06:11:27;;;;;;;7.97;6.07;;;5.30;99.90;;;;;;5105229;28;20476;-68
2023/04/14 06:13:55;;;;;;;6.25;5.65;;;5.40;99.90;;;;;;5109995;28;20444;-68
2023/04/14 06:16:22;;;;;;;6.15;5.55;;;5.40;99.90;;;;;;5107804;28;20425;-67
2023/04/14 06:18:48;;;;;;;6.85;6.15;;;5.40;99.90;;;;;;5101206;28;20437;-66
2023/04/14 06:21:15;;;;;;;7.15;5.45;;;5.50;99.90;;;;;;5090745;28;20569;-69
2023/04/14 06:23:42;;;;;;;6.70;5.63;;;5.50;99.90;;;;;;5101506;28;20435;-69
2023/04/14 06:26:09;;;;;;;5.97;5.00;;;5.60;99.90;;;;;;5091207;28;20511;-70
2023/04/14 06:28:35;;;;;;;6.95;5.20;;;5.70;99.90;;;;;;5096065;28;20431;-70
2023/04/14 06:31:04;;;;;;;5.50;5.00;;;5.80;99.90;;;;;;5100731;28;20431;-69
2023/04/14 06:33:30;;;;;;;5.90;5.30;;;5.80;99.90;;;;;;5105106;28;20408;-69
2023/04/14 06:35:57;;;;;;;6.30;5.00;;;5.90;99.90;;;;;;5092134;28;20414;-69
2023/04/14 06:38:25;;;;;;;5.57;5.07;;;6.00;99.90;;;;;;5099167;28;20428;-69
2023/04/14 06:40:52;;;;;;;7.50;5.20;;;6.10;99.90;;;;;;5097701;28;20448;-70
2023/04/14 06:43:19;;;;;;;7.18;5.30;;;6.20;99.90;;;;;;5097242;28;20436;-69
2023/04/14 06:45:46;;;;;;;5.90;4.85;;;6.20;99.90;;;;;;5100254;28;20423;-70
2023/04/14 06:48:14;;;;;;;5.45;4.65;;;6.30;99.90;;;;;;5102273;28;20428;-69
2023/04/14 06:50:41;;;;;;;5.47;4.80;;;6.40;99.90;;;;;;5097343;28;20928;-69
2023/04/14 06:53:08;;;;;;;6.60;4.57;;;6.50;99.90;;;;;;5098669;28;20667;-69
2023/04/14 06:55:35;;;;;;;6.22;4.38;;;6.50;99.90;;;;;;5087350;28;20511;-68
2023/04/14 06:58:02;;;;;;;5.28;4.20;;;6.60;99.90;;;;;;5095424;28;20432;-69
2023/04/14 07:00:29;;;;;;;4.63;4.22;;;6.60;99.90;;;;;;5100481;28;20793;-68
2023/04/14 07:02:56;;;;;;;4.70;4.30;;;6.80;99.90;;;;;;5095286;27;20430;-69
2023/04/14 07:05:24;;;;;;;5.13;4.38;;;6.90;99.90;;;;;;5111051;27;20406;-68
2023/04/14 07:07:51;;;;;;;6.40;4.40;;;7.00;99.90;;;;;;5110695;27;20568;-68
2023/04/14 07:10:17;;;;;;;5.40;4.90;;;7.10;99.90;;;;;;5104182;28;20423;-69
2023/04/14 07:12:44;;;;;;;4.90;3.92;;;7.20;99.90;;;;;;5093302;28;20503;-68
2023/04/14 07:15:13;;;;;;;4.78;4.03;;;7.30;99.90;;;;;;5104059;28;20439;-69
2023/04/14 07:17:39;;;;;;;5.50;4.32;;;7.40;99.90;;;;;;5098548;28;20779;-69
2023/04/14 07:20:08;;;;;;;5.40;4.10;;;7.50;99.90;;;;;;5101471;28;20943;-69
2023/04/14 07:22:36;;;;;;;4.82;4.20;;;7.70;99.90;;;;;;5101855;28;20429;-69
2023/04/14 07:25:02;;;;;;;5.50;4.50;;;7.90;99.90;;;;;;5092648;28;20914;-69
2023/04/14 07:27:30;;;;;;;5.70;3.97;;;8.10;99.40;;;;;;5100128;28;20433;-68
2023/04/14 07:29:57;;;;;;;4.40;3.75;;;8.30;98.40;;;;;;5094409;28;20615;-68
2023/04/14 07:32:24;;;;;;;6.18;4.22;;;8.30;97.80;;;;;;5096142;28;20432;-69
2023/04/14 07:34:51;;;;;;;7.13;4.13;;;8.40;97.10;;;;;;5098377;28;20798;-69
2023/04/14 07:37:18;;;;;;;6.70;4.15;;;8.50;97.20;;;;;;5103688;28;20577;-69
2023/04/14 07:39:46;;;;;;;4.32;3.90;;;8.70;96.20;;;;;;5092772;28;20880;-68
2023/04/14 07:42:13;;;;;;;6.85;4.18;;;8.80;96.20;;;;;;5091487;28;20478;-66
2023/04/14 07:44:40;;;;;;;6.38;3.90;;;8.80;95.90;;;;;;5101858;28;20542;-66
2023/04/14 07:47:06;;;;;;;5.60;3.90;;;9.00;95.50;;;;;;5098051;28;20432;-66
2023/04/14 07:49:33;;;;;;;5.13;4.10;;;9.10;95.40;;;;;;5091396;28;20875;-67
2023/04/14 07:52:00;;;;;;;6.00;4.10;;;9.30;94.80;;;;;;5084623;28;20870;-67
2023/04/14 07:54:27;;;;;;;5.68;4.03;;;9.60;94.70;;;;;;5084841;28;20421;-67
2023/04/14 07:56:55;;;;;;;5.15;3.80;;;9.80;93.40;;;;;;5094303;28;20919;-66
2023/04/14 07:59:22;;;;;;;5.13;3.45;;;10.00;93.00;;;;;;5105046;28;20939;-69
2023/04/14 08:01:49;;;;;;;6.43;4.00;;;10.20;92.50;;;;;;5096580;28;20470;-67
2023/04/14 08:04:16;;;;;;;4.23;3.70;;;10.40;91.50;;;;;;5097197;28;20440;-66
2023/04/14 08:06:42;;;;;;;5.30;3.80;;;10.60;90.40;;;;;;5085944;28;20864;-66
2023/04/14 08:09:10;;;;;;;6.20;4.13;;;10.60;89.20;;;;;;5097978;28;20429;-66
2023/04/14 08:11:37;;;;;;;4.70;3.58;;;10.60;90.20;;;;;;5098828;28;20424;-68
2023/04/14 08:14:05;;;;;;;5.15;4.10;;;10.70;88.90;;;;;;5088518;28;20436;-70
2023/04/14 08:16:35;;;;;;;5.20;3.70;;;10.80;88.40;;;;;;5090549;28;20595;-68
2023/04/14 08:19:02;;;;;;;5.97;3.50;;;10.80;87.80;;;;;;5100438;28;20859;-68
2023/04/14 08:21:28;;;;;;;5.57;3.53;;;10.90;86.70;;;;;;5092730;28;20730;-63
2023/04/14 08:23:56;;;;;;;5.85;3.45;;;11.00;87.60;;;;;;5095008;28;20903;-64
2023/04/14 08:26:22;;;;;;;6.68;3.50;;;11.20;86.50;;;;;;5088105;28;20494;-64
2023/04/14 08:28:49;;;;;;;6.10;3.10;;;11.40;86.60;;;;;;5094088;27;20428;-68
2023/04/14 08:31:17;;;;;;;6.30;3.30;;;11.70;83.70;;;;;;5111427;27;20407;-65
2023/04/14 08:33:44;;;;;;;6.68;3.35;;;11.90;81.00;;;;;;5112076;27;20499;-65
2023/04/14 08:36:11;;;;;;;4.25;2.85;;;12.00;81.80;;;;;;5106112;27;20414;-65
2023/04/14 08:38:38;;;;;;;6.60;3.00;;;12.30;79.00;;;;;;5112737;27;20572;-65
2023/04/14 08:41:08;;;;;;;4.95;2.60;;;12.50;77.40;;;;;;5114167;27;20913;-65
2023/04/14 08:43:35;;;;;;;7.60;3.60;;;12.60;74.10;;;;;;5107848;27;20425;-65
2023/04/14 08:46:03;;;;;;;5.90;3.10;;;12.60;74.80;;;;;;5103707;28;20412;-65
2023/04/14 08:48:35;;;;;;;4.35;2.42;;;12.80;74.60;;;;;;5089346;28;20422;-65
2023/04/14 08:51:08;;;;;;;6.30;2.72;;;13.00;71.80;;;;;;5095816;28;20424;-65
2023/04/14 08:53:42;;;;;;;3.85;2.78;;;13.10;72.10;;;;;;5100602;28;20424;-65
2023/04/14 08:56:10;;;;;;;5.63;2.58;;;13.20;70.40;;;;;;5100640;28;20756;-65
2023/04/14 08:58:38;;;;;;;5.90;2.50;;;13.30;69.60;;;;;;5092995;28;20436;-65
2023/04/14 09:01:06;;;;;;;4.25;2.90;;;13.50;69.00;;;;;;5101845;28;20693;-64
2023/04/14 09:03:35;;;;;;;4.15;2.10;;;13.50;66.40;;;;;;5098812;28;20741;-67
2023/04/14 09:06:02;;;;;;;5.32;2.60;;;13.60;64.90;;;;;;5091360;28;20516;-64
2023/04/14 09:08:32;;;;;;;4.60;2.47;;;13.70;64.40;;;;;;5097550;28;20524;-66
2023/04/14 09:11:00;;;;;;;7.13;2.50;;;13.80;62.20;;;;;;5093907;28;20855;-63
2023/04/14 09:13:28;;;;;;;4.85;2.40;;;13.90;61.70;;;;;;5097726;28;20515;-65
2023/04/14 09:15:56;;;;;;;4.93;2.50;;;14.10;62.20;;;;;;5095199;28;20417;-70
2023/04/14 09:18:23;;;;;;;5.53;2.28;;;14.30;61.50;;;;;;5094360;28;20449;-70
2023/04/14 09:20:52;;;;;;;8.10;2.80;;;14.40;59.10;;;;;;5094104;28;20430;-70
2023/04/14 09:23:21;;;;;;;6.53;2.80;;;14.50;59.00;;;;;;5084491;28;20494;-70
2023/04/14 09:25:47;;;;;;;4.80;2.80;;;14.60;58.00;;;;;;5094204;28;20871;-71
2023/04/14 09:28:14;;;;;;;5.00;2.10;;;14.70;59.00;;;;;;5096538;28;20420;-70
2023/04/14 09:30:42;;;;;;;5.45;2.10;;;14.80;57.50;;;;;;5096270;28;20510;-70
2023/04/14 09:33:18;;;;;;;5.10;2.20;;;15.00;56.70;;;;;;5094440;27;20887;-69
2023/04/14 09:35:47;;;;;;;4.25;2.10;;;14.90;53.70;;;;;;5102589;27;20500;-70
2023/04/14 09:38:16;;;;;;;4.90;2.10;;;14.90;53.00;;;;;;5096654;27;20453;-70
2023/04/14 09:40:44;;;;;;;4.30;1.80;;;15.00;52.10;;;;;;5099132;28;20943;-70
2023/04/14 09:43:24;;;;;;;4.60;2.10;;;15.00;52.30;;;;;;5103453;27;20488;-70
2023/04/14 09:45:51;;;;;;;4.75;2.00;;;14.80;49.90;;;;;;5111055;27;20420;-69
2023/04/14 09:48:18;;;;;;;5.38;2.05;;;14.70;49.90;;;;;;5101434;28;21041;-69
2023/04/14 09:50:57;;;;;;;3.80;2.42;;;14.60;49.30;;;;;;5099292;28;20877;-67
2023/04/14 09:53:29;;;;;;;4.27;2.20;;;14.50;51.40;;;;;;5102492;27;20861;-69
2023/04/14 09:55:56;;;;;;;4.43;2.20;;;14.60;51.00;;;;;;5100658;27;20424;-70
2023/04/14 09:58:23;;;;;;;5.57;2.20;;;14.70;49.30;;;;;;5088926;28;21219;-70
2023/04/14 10:00:51;;;;;;;3.65;2.20;;;14.90;50.00;;;;;;5102830;28;20432;-73
2023/04/14 10:03:32;;;;;;;3.95;1.90;;;15.10;49.30;;;;;;5098906;28;20454;-68
2023/04/14 10:06:00;;;;;;;4.43;1.85;;;15.30;48.40;;;;;;5092917;28;20450;-69
2023/04/14 10:08:36;;;;;;;4.90;1.90;;;15.50;47.90;;;;;;5095325;28;20448;-71
2023/04/14 10:11:17;;;;;;;4.68;1.90;;;15.90;46.80;;;;;;5093692;28;20534;-71
2023/04/14 10:13:44;;;;;;;4.18;1.77;;;16.10;44.90;;;;;;5090871;28;20524;-71
2023/04/14 10:16:11;;;;;;;3.42;1.60;;;16.30;45.80;;;;;;5093402;28;20414;-71
2023/04/14 10:18:38;;;;;;;3.10;1.73;;;16.30;43.90;;;;;;5085517;28;20417;-70
2023/04/14 10:21:06;;;;;;;5.35;1.83;;;16.30;43.50;;;;;;5096600;28;20517;-70
2023/04/14 10:23:36;;;;;;;4.37;1.57;;;16.20;44.10;;;;;;5102889;28;20556;-70
2023/04/14 10:26:04;;;;;;;3.70;1.63;;;16.00;44.80;;;;;;5097674;28;20413;-69
2023/04/14 10:28:32;;;;;;;3.33;1.83;;;16.00;43.70;;;;;;5097329;28;20423;-69
2023/04/14 10:31:00;;;;;;;5.60;1.98;;;16.10;43.80;;;;;;5089378;28;20421;-70
2023/04/14 10:33:28;;;;;;;3.23;1.70;;;16.30;43.70;;;;;;5104704;27;20558;-70
2023/04/14 10:35:59;;;;;;;3.15;1.45;;;16.20;42.90;;;;;;5101349;27;20426;-69
2023/04/14 10:38:39;;;;;;;3.35;1.50;;;16.20;43.80;;;;;;5093794;28;20422;-70
2023/04/14 10:41:07;;;;;;;4.55;1.80;;;16.50;44.20;;;;;;5092995;28;20436;-70
2023/04/14 10:43:35;;;;;;;2.87;1.50;;;16.90;42.10;;;;;;5096174;28;20425;-70
2023/04/14 10:46:03;;;;;;;5.25;2.00;;;17.00;41.40;;;;;;5099847;28;20546;-69
2023/04/14 10:48:33;;;;;;;3.07;1.73;;;17.30;41.20;;;;;;5083989;28;20426;-69
2023/04/14 10:51:01;;;;;;;2.95;1.48;;;17.40;40.20;;;;;;5099079;27;20424;-69
2023/04/14 10:53:35;;;;;;;4.38;1.60;;;17.20;41.10;;;;;;5097074;27;20428;-67
2023/04/14 10:56:04;;;;;;;2.70;1.52;;;17.30;41.10;;;;;;5112364;27;20481;-63
2023/04/14 10:58:36;;;;;;;3.72;1.70;;;17.50;42.40;;;;;;5103868;27;20567;-67
2023/04/14 11:01:22;;;;;;;3.20;2.00;;;17.60;40.10;;;;;;5094421;28;20439;-68
2023/04/14 11:03:49;;;;;;;4.33;1.73;;;17.90;41.00;;;;;;5097910;27;20962;-68
2023/04/14 11:06:50;;;;;;;3.93;1.70;;;18.20;39.50;;;;;;5093104;28;20424;-67
2023/04/14 11:09:31;;;;;;;3.70;1.40;;;18.30;38.70;;;;;;5099881;27;20424;-67
2023/04/14 11:12:03;;;;;;;3.65;1.50;;;18.30;37.90;;;;;;5097711;27;20456;-67
2023/04/14 11:14:31;;;;;;;2.88;1.40;;;18.40;39.10;;;;;;5107260;27;20437;-67
2023/04/14 11:17:00;;;;;;;2.65;1.50;;;18.60;37.90;;;;;;5094417;28;20423;-67
2023/04/14 11:19:27;;;;;;;2.30;1.42;;;19.00;37.30;;;;;;5082051;28;20433;-68
2023/04/14 11:21:56;;;;;;;2.50;1.50;;;19.20;37.50;;;;;;5094359;28;20432;-68
2023/04/14 11:24:23;;;;;;;2.63;1.30;;;19.40;35.80;;;;;;5093460;28;20937;-67
2023/04/14 11:26:53;;;;;;;3.38;1.50;;;19.50;35.10;;;;;;5100840;28;20727;-67
2023/04/14 11:29:19;;;;;;;2.45;1.20;;;19.30;36.00;;;;;;5096025;28;20884;-68
2023/04/14 11:31:46;;;;;;;2.83;1.50;;;19.30;33.90;;;;;;5092172;28;20405;-68
2023/04/14 11:34:13;;;;;;;2.40;1.20;;;19.30;34.30;;;;;;5103103;28;20496;-68
2023/04/14 11:36:40;;;;;;;3.10;1.40;;;19.50;33.60;;;;;;5085396;28;20413;-67
2023/04/14 11:39:08;;;;;;;3.00;1.10;;;19.50;33.10;;;;;;5103134;28;20926;-68
2023/04/14 11:41:35;;;;;;;3.00;1.20;;;19.40;33.10;;;;;;5102688;28;20438;-68
2023/04/14 11:44:02;;;;;;;2.60;1.30;;;19.20;33.30;;;;;;5095414;28;20439;-68
2023/04/14 11:46:29;;;;;;;2.85;1.40;;;19.10;33.00;;;;;;5086874;28;20745;-68
2023/04/14 11:48:56;;;;;;;2.35;1.30;;;18.90;33.20;;;;;;5087686;28;20528;-69
2023/04/14 11:51:29;;;;;;;3.55;1.50;;;18.80;33.60;;;;;;5100712;28;20424;-70
2023/04/14 11:53:57;;;;;;;3.42;1.33;;;18.70;32.70;;;;;;5094402;28;20499;-69
2023/04/14 11:56:26;;;;;;;2.92;1.25;;;18.80;33.50;;;;;;5095429;28;20580;-69
2023/04/14 11:58:59;;;;;;;2.58;1.15;;;18.80;32.80;;;;;;5097639;28;20428;-69
2023/04/14 12:01:26;;;;;;;2.28;1.17;;;18.80;33.10;;;;;;5096576;28;20436;-69
2023/04/14 12:03:53;;;;;;;2.72;1.15;;;18.80;33.60;;;;;;5097494;28;20428;-69
2023/04/14 12:06:20;;;;;;;2.40;1.30;;;19.00;34.00;;;;;;5093743;28;20417;-69
2023/04/14 12:08:51;;;;;;;3.20;1.30;;;19.20;33.50;;;;;;5094052;28;20943;-69
2023/04/14 12:11:18;;;;;;;1.98;1.10;;;19.40;33.10;;;;;;5099188;28;20532;-69
2023/04/14 12:13:47;;;;;;;3.67;1.40;;;19.50;32.60;;;;;;5101755;28;20515;-70
2023/04/14 12:16:15;;;;;;;2.28;1.10;;;19.50;32.00;;;;;;5099473;28;20893;-70
2023/04/14 12:18:42;;;;;;;3.35;1.20;;;19.40;31.90;;;;;;5102864;28;20443;-70
2023/04/14 12:21:10;;;;;;;2.70;1.10;;;19.00;32.50;;;;;;5095905;28;20422;-70
2023/04/14 12:23:37;;;;;;;2.55;1.27;;;18.70;32.70;;;;;;5107199;28;20411;-70
2023/04/14 12:26:09;;;;;;;2.10;1.30;;;18.40;33.10;;;;;;5104296;28;20412;-70
2023/04/14 12:28:38;;;;;;;2.60;1.15;;;18.20;33.40;;;;;;5098612;28;20470;-71
2023/04/14 12:31:06;;;;;;;1.92;1.30;;;18.10;33.00;;;;;;5104062;28;20439;-70
2023/04/14 12:33:33;;;;;;;2.23;0.90;;;18.10;34.40;;;;;;5105791;28;20650;-70
2023/04/14 12:36:04;;;;;;;3.70;1.35;;;18.40;33.60;;;;;;5114332;22;20458;-70
2023/04/14 12:38:32;;;;;;;2.90;1.10;;;19.00;31.70;;;;;;5096245;28;20895;-70
2023/04/14 12:40:59;;;;;;;2.33;1.00;;;19.20;30.70;;;;;;5093724;28;20429;-70
2023/04/14 12:43:31;;;;;;;2.42;0.90;;;19.40;30.60;;;;;;5094050;28;20458;-71
2023/04/14 12:45:58;;;;;;;2.42;0.90;;;19.60;30.50;;;;;;5083857;28;20421;-70
2023/04/14 12:48:42;;;;;;;2.45;0.80;;;19.80;29.90;;;;;;5096839;28;20419;-71
2023/04/14 12:51:10;;;;;;;4.00;1.17;;;20.20;29.80;;;;;;5098613;28;20453;-70
2023/04/14 12:53:37;;;;;;;2.50;1.00;;;20.60;29.20;;;;;;5091208;28;20518;-71
2023/04/14 12:56:05;;;;;;;2.42;1.05;;;21.00;29.10;;;;;;5090448;28;20438;-70
2023/04/14 12:58:32;;;;;;;2.10;0.95;;;21.30;28.40;;;;;;5104488;28;20439;-71
2023/04/14 13:00:59;;;;;;;1.90;1.10;;;21.30;28.40;;;;;;5081543;28;20425;-71